Villas del Faro, Puerto Rico
Current Conditions -  °F | °C
As of 9:53 PM on Friday 24 Oct 2014 (Local Time) from TJNR Reporting Station
Clear Clear  
Wind Chill: 81°   Ceiling: Unl
Heat Index: 87°   Visibility: 10mi
Dew Point: 75°   Wind: 5mph
Humidity: 82%   Direction: 150°SSE
Pressure: 29.94"   Gusts: NA
Location:  18.0098°N, 65.8982°W
Report Text: TJNR 250153Z AUTO 15004KT 10SM CLR 27/24 A2994 RMK AO2 SLP140 T02720239 $
Loading
Personal Weather Stations






























Interactive Weather Map
Tropical Storm Tracking
New forecast layout! Learn more

10-Day Weather Forecast

Advertisements
Track Severe Weather on mobile